Hauptseite
METAR-TAF:

METAR-TAF

Flughäfen :

Fritzlar, Deutschland

Heeresflugplatz Fritzlar

Breite: 51-07N, Länge: 009-17E, Höhe: 172 m

Beobachtung

Neuester Wetterbericht von vor 45 Minuten, um 11:20 UTC
Wind 4 kt aus Nordwest
Temperatur 19°C
Luftfeuchtigkeit 49%
Luftdruck 1024 hPa
Sichtweite 10 km oder mehr
Aufgelockert bewölkt in der Höhe von 4300 ft

METAR: ETHF 211120Z 31004KT 9999 SCT043 19/08 Q1024 BLACKBLU+BLU+

Zeit: 14:05 (12:05 UTC)

Prognose

Neuester Wetterbericht von vor 2 Stunden und 3 Minuten, um 10:02 UTC
Gültige Prognose vom 21 um 11 UTC bis 21 um 20 UTC
Wind 5 kt aus West
Sichtweite 10 km oder mehr
Leicht bewölkt in der Höhe von 5000 ft
Aufgelockert bewölkt in der Höhe von 30000 ft

TAF: ETHF 211002Z 2111/2120 27005KT 9999 NSW FEW050 SCT300

Wetterbeobachtungen und Prognosen von mehr als 4000 Flughäfen (METAR und TAF Bericht).

Die verfügbaren Stationen werden durch gelbe und rote Markierungen auf der Karte dargestellt.

Führen Sie die Maus auf sie, um den Namen der Station zu sehen.

Darauf klicken, um die Beobachtung von Wetterbeobachtungen und Prognosen zu sehen.

Um die Karte zu ändern : klicken Sie auf den grünen Tasten mit einem schwarzen Kreuz Zum Vergrößern, auf den grünen Button mit einem Gedankenstrich zu verkleinern, oder auf die grünen Pfeile für benachbarte Karten.


METAR-TAF: